Steubenville, Ohio
Current Conditions -  °F | °C
As of 1:53 AM on Thursday 23 Oct 2014 (Local Time) from KHLG Reporting Station
Overcast Overcast  
Wind Chill: 39°   Ceiling: 3900
Heat Index: 43°   Visibility: 10mi
Dew Point: 40°   Wind: 6mph
Humidity: 89%   Direction: 290°WNW
Pressure: 30.15"   Gusts: NA
Location:  40.37°N, 80.64°W
Report Text: KHLG 230553Z AUTO 29005KT 10SM OVC039 06/04 A3015 RMK AO2 SLP217 T00610044 10089 20061 58014
Loading
Personal Weather Stations






























Interactive Weather Map
Tropical Storm Tracking
New forecast layout! Learn more

10-Day Weather Forecast

Advertisements
Track Severe Weather on mobile